ADDS TAF Board INFO
 
 

IDs: Format: Expanded Condensed

KSAN - San Diego Intl Arpt, CA, US

Issued at 2031 UTC 27 Aug 2014
Time2251Z27/23Z28/00Z28/01Z28/02Z28/03Z28/04Z28/05Z28/06Z28/07Z28/08Z28/09Z28/10Z28/11Z
TypeOBSPRVLPRVLPRVLPRVLPRVLPRVLPRVLPRVLPRVLPRVLPRVLPRVLPRVL
Vis10>6>6>6>6>6>6>6>6>6>6>6>6>6
Cig----------------------------
CoverCLRSKCSKCSKCSKCFEWFEWFEWFEWFEWFEWFEWFEWFEW
FltCat--VFRVFRVFRVFRVFRVFRVFRVFRVFRVFRVFRVFRVFR
Wx----------------------------
WDir310310310310310VRBVRBVRBVRBVRBVRBVRBVRBVRB
WSpd89999444444444
WGst----------------------------
R09/27
XWnd34444VRBVRBVRBVRBVRBVRBVRBVRBVRB
HWnd-7-8-8-8-8VRBVRBVRBVRBVRBVRBVRBVRBVRB
Raw TAF
KSAN 272031Z 2721/2824 31009KT P6SM SKC
  FM280300 VRB04KT P6SM FEW010
  FM281900 29009KT P6SM SKC


Raw METAR
KSAN 272251Z 31008KT 10SM CLR 28/17 A2999 RMK AO2 SLP154 T02830167

TAF Board Legend

Hazard Green Yellow Red Magenta
Visibility (sm) >5 >2.99 >0.99 <=0.99
Ceiling (100 ft) >30 >9.99 >4.99 <=4.99
Wind Speed (kt) <10 <20 <30 >=30
Wind Gust (kt) <10 <20 <30 >=30
Weather No Wx Reported Light precipitation Moderate precipitation Heavy precipitation
Flight Category VFR MVFR IFR LIFR

Page loaded:  23:00 UTC  |   04:00 PM Pacific  |   05:00 PM Mountain  |   06:00 PM Central  |   07:00 PM Eastern

 

ADVISORIES

FORECASTS

FORECASTS

OBSERVATIONS

USER TOOLS

ABOUT US